sensor_id;sensor_type;location;lat;lon;timestamp;P1;durP1;ratioP1;P2;durP2;ratioP2
45420;SDS011;55462;47.042;8.292;2024-03-17T00:01:42;6.22;;;2.20;;
45420;SDS011;55462;47.042;8.292;2024-03-17T00:04:07;2.03;;;1.75;;
45420;SDS011;55462;47.042;8.292;2024-03-17T00:06:33;1.88;;;1.50;;
45420;SDS011;55462;47.042;8.292;2024-03-17T00:08:58;2.92;;;2.22;;
45420;SDS011;55462;47.042;8.292;2024-03-17T00:11:24;4.85;;;2.05;;
45420;SDS011;55462;47.042;8.292;2024-03-17T00:13:49;2.22;;;2.08;;
45420;SDS011;55462;47.042;8.292;2024-03-17T00:16:14;5.72;;;3.17;;
45420;SDS011;55462;47.042;8.292;2024-03-17T00:18:43;2.78;;;2.58;;
45420;SDS011;55462;47.042;8.292;2024-03-17T00:21:09;3.30;;;2.70;;
45420;SDS011;55462;47.042;8.292;2024-03-17T00:23:34;5.82;;;2.67;;
45420;SDS011;55462;47.042;8.292;2024-03-17T00:25:59;3.53;;;3.00;;
45420;SDS011;55462;47.042;8.292;2024-03-17T00:28:25;3.80;;;2.20;;
45420;SDS011;55462;47.042;8.292;2024-03-17T00:30:50;2.03;;;1.92;;
45420;SDS011;55462;47.042;8.292;2024-03-17T00:33:16;3.42;;;1.90;;
45420;SDS011;55462;47.042;8.292;2024-03-17T00:35:41;3.03;;;2.20;;
45420;SDS011;55462;47.042;8.292;2024-03-17T00:38:06;2.28;;;2.13;;
45420;SDS011;55462;47.042;8.292;2024-03-17T00:40:36;4.38;;;2.28;;
45420;SDS011;55462;47.042;8.292;2024-03-17T00:43:02;2.97;;;2.28;;
45420;SDS011;55462;47.042;8.292;2024-03-17T00:45:27;4.45;;;2.00;;
45420;SDS011;55462;47.042;8.292;2024-03-17T00:47:53;2.25;;;2.00;;
45420;SDS011;55462;47.042;8.292;2024-03-17T00:50:18;3.25;;;2.13;;
45420;SDS011;55462;47.042;8.292;2024-03-17T00:52:43;3.85;;;2.20;;
45420;SDS011;55462;47.042;8.292;2024-03-17T00:55:09;1.95;;;1.85;;
45420;SDS011;55462;47.042;8.292;2024-03-17T00:57:35;2.50;;;1.85;;
45420;SDS011;55462;47.042;8.292;2024-03-17T01:00:01;2.25;;;2.03;;
45420;SDS011;55462;47.042;8.292;2024-03-17T01:02:27;4.20;;;2.08;;
45420;SDS011;55462;47.042;8.292;2024-03-17T01:04:53;2.22;;;1.70;;
45420;SDS011;55462;47.042;8.292;2024-03-17T01:07:18;3.83;;;2.10;;
45420;SDS011;55462;47.042;8.292;2024-03-17T01:09:43;2.90;;;1.60;;
45420;SDS011;55462;47.042;8.292;2024-03-17T01:12:08;1.95;;;1.80;;
45420;SDS011;55462;47.042;8.292;2024-03-17T01:14:34;7.05;;;2.00;;
45420;SDS011;55462;47.042;8.292;2024-03-17T01:17:00;3.47;;;1.98;;
45420;SDS011;55462;47.042;8.292;2024-03-17T01:19:25;2.70;;;1.70;;
45420;SDS011;55462;47.042;8.292;2024-03-17T01:21:51;3.70;;;1.70;;
45420;SDS011;55462;47.042;8.292;2024-03-17T01:24:17;2.75;;;1.58;;
45420;SDS011;55462;47.042;8.292;2024-03-17T01:26:42;1.77;;;1.67;;
45420;SDS011;55462;47.042;8.292;2024-03-17T01:29:08;1.38;;;1.25;;
45420;SDS011;55462;47.042;8.292;2024-03-17T01:31:34;4.13;;;1.80;;
45420;SDS011;55462;47.042;8.292;2024-03-17T01:33:59;2.08;;;1.55;;
45420;SDS011;55462;47.042;8.292;2024-03-17T01:36:24;3.08;;;1.80;;
45420;SDS011;55462;47.042;8.292;2024-03-17T01:38:50;3.60;;;1.88;;
45420;SDS011;55462;47.042;8.292;2024-03-17T01:41:16;2.78;;;1.98;;
45420;SDS011;55462;47.042;8.292;2024-03-17T01:43:41;3.45;;;2.10;;
45420;SDS011;55462;47.042;8.292;2024-03-17T01:46:08;3.88;;;2.30;;
45420;SDS011;55462;47.042;8.292;2024-03-17T01:48:37;4.13;;;1.90;;
45420;SDS011;55462;47.042;8.292;2024-03-17T01:51:03;2.10;;;1.90;;
45420;SDS011;55462;47.042;8.292;2024-03-17T01:53:29;1.70;;;1.60;;
45420;SDS011;55462;47.042;8.292;2024-03-17T01:55:55;3.38;;;2.00;;
45420;SDS011;55462;47.042;8.292;2024-03-17T01:58:22;2.05;;;1.83;;
45420;SDS011;55462;47.042;8.292;2024-03-17T02:00:50;5.35;;;2.30;;
45420;SDS011;55462;47.042;8.292;2024-03-17T02:03:16;2.80;;;2.10;;
45420;SDS011;55462;47.042;8.292;2024-03-17T02:05:41;4.38;;;2.28;;
45420;SDS011;55462;47.042;8.292;2024-03-17T02:08:07;4.35;;;2.03;;
45420;SDS011;55462;47.042;8.292;2024-03-17T02:10:33;3.35;;;2.15;;
45420;SDS011;55462;47.042;8.292;2024-03-17T02:12:59;3.22;;;2.00;;
45420;SDS011;55462;47.042;8.292;2024-03-17T02:15:25;2.70;;;2.00;;
45420;SDS011;55462;47.042;8.292;2024-03-17T02:17:51;2.50;;;2.20;;
45420;SDS011;55462;47.042;8.292;2024-03-17T02:20:16;3.25;;;2.10;;
45420;SDS011;55462;47.042;8.292;2024-03-17T02:22:42;2.35;;;2.10;;
45420;SDS011;55462;47.042;8.292;2024-03-17T02:25:08;3.03;;;2.17;;
45420;SDS011;55462;47.042;8.292;2024-03-17T02:27:34;3.63;;;2.50;;
45420;SDS011;55462;47.042;8.292;2024-03-17T02:30:00;3.88;;;2.67;;
45420;SDS011;55462;47.042;8.292;2024-03-17T02:32:25;4.70;;;2.72;;
45420;SDS011;55462;47.042;8.292;2024-03-17T02:34:52;2.63;;;2.42;;
45420;SDS011;55462;47.042;8.292;2024-03-17T02:37:18;2.90;;;2.30;;
45420;SDS011;55462;47.042;8.292;2024-03-17T02:39:43;5.53;;;2.30;;
45420;SDS011;55462;47.042;8.292;2024-03-17T02:42:09;3.50;;;1.90;;
45420;SDS011;55462;47.042;8.292;2024-03-17T02:44:35;3.15;;;2.30;;
45420;SDS011;55462;47.042;8.292;2024-03-17T02:47:02;3.20;;;2.13;;
45420;SDS011;55462;47.042;8.292;2024-03-17T02:49:33;2.50;;;2.30;;
45420;SDS011;55462;47.042;8.292;2024-03-17T02:52:06;3.20;;;2.30;;
45420;SDS011;55462;47.042;8.292;2024-03-17T02:54:34;3.10;;;2.40;;
45420;SDS011;55462;47.042;8.292;2024-03-17T02:57:00;4.90;;;2.67;;
45420;SDS011;55462;47.042;8.292;2024-03-17T02:59:25;3.80;;;2.67;;
45420;SDS011;55462;47.042;8.292;2024-03-17T03:01:51;2.75;;;2.55;;
45420;SDS011;55462;47.042;8.292;2024-03-17T03:04:17;3.47;;;2.85;;
45420;SDS011;55462;47.042;8.292;2024-03-17T03:06:42;3.35;;;2.63;;
45420;SDS011;55462;47.042;8.292;2024-03-17T03:09:08;3.30;;;2.97;;
45420;SDS011;55462;47.042;8.292;2024-03-17T03:11:38;4.20;;;3.08;;
45420;SDS011;55462;47.042;8.292;2024-03-17T03:14:05;2.78;;;2.58;;
45420;SDS011;55462;47.042;8.292;2024-03-17T03:16:30;3.97;;;2.72;;
45420;SDS011;55462;47.042;8.292;2024-03-17T03:18:55;3.83;;;3.00;;
45420;SDS011;55462;47.042;8.292;2024-03-17T03:21:21;3.92;;;3.00;;
45420;SDS011;55462;47.042;8.292;2024-03-17T03:23:46;3.17;;;2.88;;
45420;SDS011;55462;47.042;8.292;2024-03-17T03:26:12;3.92;;;2.75;;
45420;SDS011;55462;47.042;8.292;2024-03-17T03:28:37;3.03;;;2.75;;
45420;SDS011;55462;47.042;8.292;2024-03-17T03:31:03;3.90;;;3.03;;
45420;SDS011;55462;47.042;8.292;2024-03-17T03:33:28;3.25;;;2.88;;
45420;SDS011;55462;47.042;8.292;2024-03-17T03:35:54;3.28;;;2.97;;
45420;SDS011;55462;47.042;8.292;2024-03-17T03:38:20;3.10;;;2.80;;
45420;SDS011;55462;47.042;8.292;2024-03-17T03:40:46;3.17;;;2.78;;
45420;SDS011;55462;47.042;8.292;2024-03-17T03:43:12;3.17;;;2.50;;
45420;SDS011;55462;47.042;8.292;2024-03-17T03:45:39;2.90;;;1.98;;
45420;SDS011;55462;47.042;8.292;2024-03-17T03:48:05;6.32;;;2.30;;
45420;SDS011;55462;47.042;8.292;2024-03-17T03:50:31;2.35;;;1.90;;
45420;SDS011;55462;47.042;8.292;2024-03-17T03:52:56;2.72;;;1.90;;
45420;SDS011;55462;47.042;8.292;2024-03-17T03:55:22;2.30;;;2.00;;
45420;SDS011;55462;47.042;8.292;2024-03-17T03:57:47;3.00;;;1.80;;
45420;SDS011;55462;47.042;8.292;2024-03-17T04:00:13;2.35;;;1.83;;
45420;SDS011;55462;47.042;8.292;2024-03-17T04:02:40;2.72;;;1.70;;
45420;SDS011;55462;47.042;8.292;2024-03-17T04:05:08;2.22;;;1.70;;
45420;SDS011;55462;47.042;8.292;2024-03-17T04:07:34;3.28;;;2.00;;
45420;SDS011;55462;47.042;8.292;2024-03-17T04:10:00;1.80;;;1.70;;
45420;SDS011;55462;47.042;8.292;2024-03-17T04:12:26;2.90;;;2.13;;
45420;SDS011;55462;47.042;8.292;2024-03-17T04:14:52;3.58;;;2.17;;
45420;SDS011;55462;47.042;8.292;2024-03-17T04:17:21;6.32;;;2.55;;
45420;SDS011;55462;47.042;8.292;2024-03-17T04:19:48;2.78;;;2.58;;
45420;SDS011;55462;47.042;8.292;2024-03-17T04:22:16;3.95;;;2.25;;
45420;SDS011;55462;47.042;8.292;2024-03-17T04:24:42;5.00;;;2.38;;
45420;SDS011;55462;47.042;8.292;2024-03-17T04:27:11;4.20;;;2.67;;
45420;SDS011;55462;47.042;8.292;2024-03-17T04:29:38;2.70;;;2.25;;
45420;SDS011;55462;47.042;8.292;2024-03-17T04:32:04;2.92;;;2.30;;
45420;SDS011;55462;47.042;8.292;2024-03-17T04:34:30;2.55;;;2.35;;
45420;SDS011;55462;47.042;8.292;2024-03-17T04:36:56;2.60;;;2.35;;
45420;SDS011;55462;47.042;8.292;2024-03-17T04:39:22;2.30;;;2.08;;
45420;SDS011;55462;47.042;8.292;2024-03-17T04:41:47;5.28;;;2.20;;
45420;SDS011;55462;47.042;8.292;2024-03-17T04:44:13;2.38;;;2.17;;
45420;SDS011;55462;47.042;8.292;2024-03-17T04:46:38;3.33;;;2.10;;
45420;SDS011;55462;47.042;8.292;2024-03-17T04:49:04;2.30;;;2.08;;
45420;SDS011;55462;47.042;8.292;2024-03-17T04:51:29;3.72;;;2.20;;
45420;SDS011;55462;47.042;8.292;2024-03-17T04:53:55;2.33;;;2.10;;
45420;SDS011;55462;47.042;8.292;2024-03-17T04:56:20;2.63;;;2.17;;
45420;SDS011;55462;47.042;8.292;2024-03-17T04:58:45;2.40;;;2.20;;
45420;SDS011;55462;47.042;8.292;2024-03-17T05:01:11;4.47;;;2.50;;
45420;SDS011;55462;47.042;8.292;2024-03-17T05:03:38;3.15;;;2.55;;
45420;SDS011;55462;47.042;8.292;2024-03-17T05:06:03;5.03;;;2.30;;
45420;SDS011;55462;47.042;8.292;2024-03-17T05:08:29;6.20;;;2.30;;
45420;SDS011;55462;47.042;8.292;2024-03-17T05:10:59;3.25;;;2.50;;
45420;SDS011;55462;47.042;8.292;2024-03-17T05:13:25;5.43;;;2.30;;
45420;SDS011;55462;47.042;8.292;2024-03-17T05:15:53;4.93;;;2.70;;
45420;SDS011;55462;47.042;8.292;2024-03-17T05:18:19;5.03;;;2.80;;
45420;SDS011;55462;47.042;8.292;2024-03-17T05:20:45;4.65;;;2.42;;
45420;SDS011;55462;47.042;8.292;2024-03-17T05:23:12;6.22;;;3.00;;
45420;SDS011;55462;47.042;8.292;2024-03-17T05:25:38;2.78;;;2.35;;
45420;SDS011;55462;47.042;8.292;2024-03-17T05:28:04;4.07;;;2.42;;
45420;SDS011;55462;47.042;8.292;2024-03-17T05:30:29;2.97;;;2.78;;
45420;SDS011;55462;47.042;8.292;2024-03-17T05:32:55;2.50;;;2.10;;
45420;SDS011;55462;47.042;8.292;2024-03-17T05:35:21;2.85;;;2.47;;
45420;SDS011;55462;47.042;8.292;2024-03-17T05:37:46;3.35;;;2.00;;
45420;SDS011;55462;47.042;8.292;2024-03-17T05:40:13;3.08;;;2.30;;
45420;SDS011;55462;47.042;8.292;2024-03-17T05:42:41;3.50;;;2.20;;
45420;SDS011;55462;47.042;8.292;2024-03-17T05:45:07;6.22;;;2.38;;
45420;SDS011;55462;47.042;8.292;2024-03-17T05:47:35;3.47;;;2.50;;
45420;SDS011;55462;47.042;8.292;2024-03-17T05:50:01;5.53;;;2.50;;
45420;SDS011;55462;47.042;8.292;2024-03-17T05:52:26;3.83;;;1.83;;
45420;SDS011;55462;47.042;8.292;2024-03-17T05:54:51;4.68;;;2.47;;
45420;SDS011;55462;47.042;8.292;2024-03-17T05:57:17;3.20;;;3.00;;
45420;SDS011;55462;47.042;8.292;2024-03-17T05:59:42;4.07;;;2.60;;
45420;SDS011;55462;47.042;8.292;2024-03-17T06:02:07;2.65;;;2.42;;
45420;SDS011;55462;47.042;8.292;2024-03-17T06:04:35;4.97;;;2.47;;
45420;SDS011;55462;47.042;8.292;2024-03-17T06:07:00;2.83;;;2.63;;
45420;SDS011;55462;47.042;8.292;2024-03-17T06:09:25;2.58;;;2.25;;
45420;SDS011;55462;47.042;8.292;2024-03-17T06:11:51;2.53;;;2.33;;
45420;SDS011;55462;47.042;8.292;2024-03-17T06:14:16;2.20;;;2.00;;
45420;SDS011;55462;47.042;8.292;2024-03-17T06:16:42;3.58;;;2.00;;
45420;SDS011;55462;47.042;8.292;2024-03-17T06:19:08;3.72;;;2.03;;
45420;SDS011;55462;47.042;8.292;2024-03-17T06:21:34;3.83;;;2.20;;
45420;SDS011;55462;47.042;8.292;2024-03-17T06:23:59;2.45;;;1.65;;
45420;SDS011;55462;47.042;8.292;2024-03-17T06:26:24;3.60;;;1.85;;
45420;SDS011;55462;47.042;8.292;2024-03-17T06:28:51;3.85;;;2.28;;
45420;SDS011;55462;47.042;8.292;2024-03-17T06:31:17;4.53;;;2.30;;
45420;SDS011;55462;47.042;8.292;2024-03-17T06:33:42;4.10;;;2.45;;
45420;SDS011;55462;47.042;8.292;2024-03-17T06:36:07;2.60;;;2.40;;
45420;SDS011;55462;47.042;8.292;2024-03-17T06:38:33;2.80;;;2.22;;
45420;SDS011;55462;47.042;8.292;2024-03-17T06:40:59;3.00;;;2.58;;
45420;SDS011;55462;47.042;8.292;2024-03-17T06:43:24;2.50;;;2.30;;
45420;SDS011;55462;47.042;8.292;2024-03-17T06:45:56;3.85;;;2.13;;
45420;SDS011;55462;47.042;8.292;2024-03-17T06:48:25;4.28;;;2.53;;
45420;SDS011;55462;47.042;8.292;2024-03-17T06:50:51;3.65;;;2.53;;
45420;SDS011;55462;47.042;8.292;2024-03-17T06:53:17;3.30;;;2.88;;
45420;SDS011;55462;47.042;8.292;2024-03-17T06:55:44;4.22;;;2.75;;
45420;SDS011;55462;47.042;8.292;2024-03-17T06:58:11;2.20;;;2.00;;
45420;SDS011;55462;47.042;8.292;2024-03-17T07:00:36;3.88;;;2.47;;
45420;SDS011;55462;47.042;8.292;2024-03-17T07:03:02;5.32;;;2.08;;
45420;SDS011;55462;47.042;8.292;2024-03-17T07:05:27;3.83;;;2.38;;
45420;SDS011;55462;47.042;8.292;2024-03-17T07:07:54;3.10;;;2.45;;
45420;SDS011;55462;47.042;8.292;2024-03-17T07:10:20;3.20;;;2.50;;
45420;SDS011;55462;47.042;8.292;2024-03-17T07:12:45;2.40;;;2.25;;
45420;SDS011;55462;47.042;8.292;2024-03-17T07:15:10;6.18;;;2.63;;
45420;SDS011;55462;47.042;8.292;2024-03-17T07:17:36;2.83;;;2.05;;
45420;SDS011;55462;47.042;8.292;2024-03-17T07:20:01;2.65;;;2.10;;
45420;SDS011;55462;47.042;8.292;2024-03-17T07:22:28;3.65;;;2.78;;
45420;SDS011;55462;47.042;8.292;2024-03-17T07:24:54;5.80;;;2.58;;
45420;SDS011;55462;47.042;8.292;2024-03-17T07:27:26;2.95;;;2.47;;
45420;SDS011;55462;47.042;8.292;2024-03-17T07:29:52;3.85;;;2.33;;
45420;SDS011;55462;47.042;8.292;2024-03-17T07:32:17;4.65;;;2.58;;
45420;SDS011;55462;47.042;8.292;2024-03-17T07:34:42;3.85;;;2.55;;
45420;SDS011;55462;47.042;8.292;2024-03-17T07:37:08;3.65;;;2.47;;
45420;SDS011;55462;47.042;8.292;2024-03-17T07:39:33;2.72;;;2.30;;
45420;SDS011;55462;47.042;8.292;2024-03-17T07:41:59;3.58;;;2.38;;
45420;SDS011;55462;47.042;8.292;2024-03-17T07:44:26;3.70;;;2.28;;
45420;SDS011;55462;47.042;8.292;2024-03-17T07:46:54;2.80;;;2.00;;
45420;SDS011;55462;47.042;8.292;2024-03-17T07:49:19;2.88;;;1.98;;
45420;SDS011;55462;47.042;8.292;2024-03-17T07:51:45;3.80;;;1.77;;
45420;SDS011;55462;47.042;8.292;2024-03-17T07:54:10;1.80;;;1.70;;
45420;SDS011;55462;47.042;8.292;2024-03-17T07:56:36;1.90;;;1.55;;
45420;SDS011;55462;47.042;8.292;2024-03-17T07:59:01;2.78;;;1.70;;
45420;SDS011;55462;47.042;8.292;2024-03-17T08:01:26;1.80;;;1.58;;
45420;SDS011;55462;47.042;8.292;2024-03-17T08:03:52;2.33;;;2.00;;
45420;SDS011;55462;47.042;8.292;2024-03-17T08:06:21;4.05;;;2.00;;
45420;SDS011;55462;47.042;8.292;2024-03-17T08:08:46;2.20;;;1.83;;
45420;SDS011;55462;47.042;8.292;2024-03-17T08:11:12;1.98;;;1.50;;
45420;SDS011;55462;47.042;8.292;2024-03-17T08:13:38;4.63;;;1.83;;
45420;SDS011;55462;47.042;8.292;2024-03-17T08:16:04;2.42;;;1.65;;
45420;SDS011;55462;47.042;8.292;2024-03-17T08:18:31;2.25;;;1.48;;
45420;SDS011;55462;47.042;8.292;2024-03-17T08:20:57;2.38;;;1.50;;
45420;SDS011;55462;47.042;8.292;2024-03-17T08:23:22;2.35;;;1.50;;
45420;SDS011;55462;47.042;8.292;2024-03-17T08:25:55;2.38;;;1.48;;
45420;SDS011;55462;47.042;8.292;2024-03-17T08:28:21;3.58;;;1.75;;
45420;SDS011;55462;47.042;8.292;2024-03-17T08:33:21;1.77;;;1.52;;
45420;SDS011;55462;47.042;8.292;2024-03-17T08:38:29;2.55;;;1.73;;
45420;SDS011;55462;47.042;8.292;2024-03-17T08:40:56;3.03;;;1.77;;
45420;SDS011;55462;47.042;8.292;2024-03-17T08:43:22;3.53;;;1.88;;
45420;SDS011;55462;47.042;8.292;2024-03-17T08:45:57;3.30;;;1.70;;
45420;SDS011;55462;47.042;8.292;2024-03-17T08:48:25;2.47;;;1.58;;
45420;SDS011;55462;47.042;8.292;2024-03-17T08:50:51;2.88;;;1.23;;
45420;SDS011;55462;47.042;8.292;2024-03-17T08:53:17;3.20;;;1.83;;
45420;SDS011;55462;47.042;8.292;2024-03-17T08:55:43;1.55;;;1.45;;
45420;SDS011;55462;47.042;8.292;2024-03-17T08:58:09;3.83;;;1.70;;
45420;SDS011;55462;47.042;8.292;2024-03-17T09:00:35;4.60;;;1.90;;
45420;SDS011;55462;47.042;8.292;2024-03-17T09:03:01;3.42;;;2.00;;
45420;SDS011;55462;47.042;8.292;2024-03-17T09:05:27;2.72;;;1.83;;
45420;SDS011;55462;47.042;8.292;2024-03-17T09:07:52;2.92;;;1.83;;
45420;SDS011;55462;47.042;8.292;2024-03-17T09:10:17;3.42;;;1.95;;
45420;SDS011;55462;47.042;8.292;2024-03-17T09:12:43;4.60;;;1.55;;
45420;SDS011;55462;47.042;8.292;2024-03-17T09:15:08;2.45;;;1.90;;
45420;SDS011;55462;47.042;8.292;2024-03-17T09:17:36;3.33;;;2.00;;
45420;SDS011;55462;47.042;8.292;2024-03-17T09:20:02;1.88;;;1.40;;
45420;SDS011;55462;47.042;8.292;2024-03-17T09:22:27;4.60;;;1.60;;
45420;SDS011;55462;47.042;8.292;2024-03-17T09:24:54;3.30;;;2.20;;
45420;SDS011;55462;47.042;8.292;2024-03-17T09:27:19;2.95;;;2.20;;
45420;SDS011;55462;47.042;8.292;2024-03-17T09:29:47;2.78;;;1.90;;
45420;SDS011;55462;47.042;8.292;2024-03-17T09:32:12;3.45;;;1.80;;
45420;SDS011;55462;47.042;8.292;2024-03-17T09:34:42;2.40;;;2.20;;
45420;SDS011;55462;47.042;8.292;2024-03-17T09:37:12;3.60;;;2.42;;
45420;SDS011;55462;47.042;8.292;2024-03-17T09:39:38;3.35;;;2.20;;
45420;SDS011;55462;47.042;8.292;2024-03-17T09:42:03;3.83;;;2.13;;
45420;SDS011;55462;47.042;8.292;2024-03-17T09:44:30;3.83;;;2.00;;
45420;SDS011;55462;47.042;8.292;2024-03-17T09:46:58;2.05;;;1.85;;
45420;SDS011;55462;47.042;8.292;2024-03-17T09:49:24;2.55;;;1.92;;
45420;SDS011;55462;47.042;8.292;2024-03-17T09:51:50;2.72;;;2.05;;
45420;SDS011;55462;47.042;8.292;2024-03-17T09:54:19;3.92;;;2.38;;
45420;SDS011;55462;47.042;8.292;2024-03-17T09:56:45;3.83;;;2.33;;
45420;SDS011;55462;47.042;8.292;2024-03-17T09:59:11;2.60;;;2.13;;
45420;SDS011;55462;47.042;8.292;2024-03-17T10:01:36;5.32;;;2.42;;
45420;SDS011;55462;47.042;8.292;2024-03-17T10:04:02;3.90;;;2.00;;
45420;SDS011;55462;47.042;8.292;2024-03-17T10:06:30;3.47;;;2.30;;
45420;SDS011;55462;47.042;8.292;2024-03-17T10:08:57;2.40;;;2.20;;
45420;SDS011;55462;47.042;8.292;2024-03-17T10:11:23;4.43;;;2.35;;
45420;SDS011;55462;47.042;8.292;2024-03-17T10:16:26;4.50;;;2.75;;
45420;SDS011;55462;47.042;8.292;2024-03-17T10:19:13;6.25;;;2.63;;
45420;SDS011;55462;47.042;8.292;2024-03-17T10:21:42;4.03;;;2.85;;
45420;SDS011;55462;47.042;8.292;2024-03-17T10:24:10;4.30;;;2.95;;
45420;SDS011;55462;47.042;8.292;2024-03-17T10:31:50;4.00;;;2.90;;
45420;SDS011;55462;47.042;8.292;2024-03-17T10:34:17;4.03;;;3.25;;
45420;SDS011;55462;47.042;8.292;2024-03-17T10:36:43;4.60;;;3.25;;
45420;SDS011;55462;47.042;8.292;2024-03-17T10:39:18;5.45;;;3.20;;
45420;SDS011;55462;47.042;8.292;2024-03-17T10:41:54;4.47;;;3.30;;
45420;SDS011;55462;47.042;8.292;2024-03-17T10:44:29;6.40;;;3.40;;
45420;SDS011;55462;47.042;8.292;2024-03-17T10:46:56;4.45;;;3.45;;
45420;SDS011;55462;47.042;8.292;2024-03-17T10:49:31;4.13;;;3.30;;
45420;SDS011;55462;47.042;8.292;2024-03-17T10:51:59;8.63;;;3.90;;
45420;SDS011;55462;47.042;8.292;2024-03-17T10:54:26;4.75;;;3.47;;
45420;SDS011;55462;47.042;8.292;2024-03-17T10:56:53;5.43;;;2.85;;
45420;SDS011;55462;47.042;8.292;2024-03-17T10:59:20;2.88;;;2.42;;
45420;SDS011;55462;47.042;8.292;2024-03-17T11:01:50;3.70;;;2.50;;
45420;SDS011;55462;47.042;8.292;2024-03-17T11:04:16;5.20;;;2.50;;
45420;SDS011;55462;47.042;8.292;2024-03-17T11:06:42;3.55;;;2.13;;
45420;SDS011;55462;47.042;8.292;2024-03-17T11:09:13;3.75;;;2.40;;
45420;SDS011;55462;47.042;8.292;2024-03-17T11:11:40;4.13;;;2.50;;
45420;SDS011;55462;47.042;8.292;2024-03-17T11:14:16;4.13;;;2.67;;
45420;SDS011;55462;47.042;8.292;2024-03-17T11:16:44;3.53;;;2.05;;
45420;SDS011;55462;47.042;8.292;2024-03-17T11:19:12;2.78;;;2.28;;
45420;SDS011;55462;47.042;8.292;2024-03-17T11:21:40;4.88;;;3.17;;
45420;SDS011;55462;47.042;8.292;2024-03-17T11:24:05;5.65;;;3.42;;
45420;SDS011;55462;47.042;8.292;2024-03-17T11:26:34;6.15;;;2.92;;
45420;SDS011;55462;47.042;8.292;2024-03-17T11:29:02;5.10;;;3.10;;
45420;SDS011;55462;47.042;8.292;2024-03-17T11:31:35;4.97;;;3.80;;
45420;SDS011;55462;47.042;8.292;2024-03-17T11:34:02;6.57;;;4.80;;
45420;SDS011;55462;47.042;8.292;2024-03-17T11:36:30;7.80;;;4.80;;
45420;SDS011;55462;47.042;8.292;2024-03-17T11:38:58;5.57;;;4.13;;
45420;SDS011;55462;47.042;8.292;2024-03-17T11:46:57;8.02;;;4.70;;
45420;SDS011;55462;47.042;8.292;2024-03-17T11:52:02;5.90;;;3.97;;
45420;SDS011;55462;47.042;8.292;2024-03-17T11:54:32;7.22;;;4.15;;
45420;SDS011;55462;47.042;8.292;2024-03-17T11:59:30;5.28;;;3.20;;
45420;SDS011;55462;47.042;8.292;2024-03-17T12:01:56;3.42;;;3.05;;
45420;SDS011;55462;47.042;8.292;2024-03-17T12:04:22;3.42;;;2.40;;
45420;SDS011;55462;47.042;8.292;2024-03-17T12:06:52;4.18;;;3.00;;
45420;SDS011;55462;47.042;8.292;2024-03-17T12:09:20;5.32;;;2.85;;
45420;SDS011;55462;47.042;8.292;2024-03-17T12:14:25;4.55;;;2.65;;
45420;SDS011;55462;47.042;8.292;2024-03-17T12:16:54;3.70;;;2.78;;
45420;SDS011;55462;47.042;8.292;2024-03-17T12:19:20;4.00;;;3.55;;
45420;SDS011;55462;47.042;8.292;2024-03-17T12:21:50;3.45;;;3.15;;
45420;SDS011;55462;47.042;8.292;2024-03-17T12:24:21;5.80;;;3.50;;
45420;SDS011;55462;47.042;8.292;2024-03-17T12:26:48;7.50;;;2.95;;
45420;SDS011;55462;47.042;8.292;2024-03-17T12:31:50;4.22;;;3.08;;
45420;SDS011;55462;47.042;8.292;2024-03-17T12:34:16;4.10;;;3.10;;
45420;SDS011;55462;47.042;8.292;2024-03-17T12:36:41;5.30;;;3.20;;
45420;SDS011;55462;47.042;8.292;2024-03-17T12:39:17;6.22;;;3.30;;
45420;SDS011;55462;47.042;8.292;2024-03-17T12:47:07;5.07;;;3.78;;
45420;SDS011;55462;47.042;8.292;2024-03-17T12:49:34;5.40;;;3.42;;
45420;SDS011;55462;47.042;8.292;2024-03-17T12:51:59;3.97;;;2.72;;
45420;SDS011;55462;47.042;8.292;2024-03-17T12:54:26;3.60;;;2.58;;
45420;SDS011;55462;47.042;8.292;2024-03-17T12:57:02;4.05;;;2.78;;
45420;SDS011;55462;47.042;8.292;2024-03-17T12:59:50;6.20;;;3.28;;
45420;SDS011;55462;47.042;8.292;2024-03-17T13:02:34;3.65;;;2.78;;
45420;SDS011;55462;47.042;8.292;2024-03-17T13:05:32;5.03;;;3.35;;
45420;SDS011;55462;47.042;8.292;2024-03-17T13:07:51;4.55;;;3.08;;
45420;SDS011;55462;47.042;8.292;2024-03-17T13:10:19;5.18;;;3.10;;
45420;SDS011;55462;47.042;8.292;2024-03-17T13:12:45;4.43;;;3.00;;
45420;SDS011;55462;47.042;8.292;2024-03-17T13:15:16;4.50;;;3.33;;
45420;SDS011;55462;47.042;8.292;2024-03-17T13:17:42;4.55;;;3.60;;
45420;SDS011;55462;47.042;8.292;2024-03-17T13:20:11;4.75;;;2.97;;
45420;SDS011;55462;47.042;8.292;2024-03-17T13:22:38;4.47;;;2.50;;
45420;SDS011;55462;47.042;8.292;2024-03-17T13:25:05;3.80;;;2.30;;
45420;SDS011;55462;47.042;8.292;2024-03-17T13:27:32;3.90;;;2.70;;
45420;SDS011;55462;47.042;8.292;2024-03-17T13:29:58;2.72;;;2.50;;
45420;SDS011;55462;47.042;8.292;2024-03-17T13:32:23;3.92;;;2.58;;
45420;SDS011;55462;47.042;8.292;2024-03-17T13:34:49;3.90;;;2.55;;
45420;SDS011;55462;47.042;8.292;2024-03-17T13:37:15;3.90;;;2.60;;
45420;SDS011;55462;47.042;8.292;2024-03-17T13:39:40;6.03;;;2.65;;
45420;SDS011;55462;47.042;8.292;2024-03-17T13:42:06;3.28;;;2.40;;
45420;SDS011;55462;47.042;8.292;2024-03-17T13:44:33;5.53;;;2.47;;
45420;SDS011;55462;47.042;8.292;2024-03-17T13:46:59;4.40;;;2.10;;
45420;SDS011;55462;47.042;8.292;2024-03-17T13:49:26;2.58;;;2.20;;
45420;SDS011;55462;47.042;8.292;2024-03-17T13:51:52;4.38;;;2.20;;
45420;SDS011;55462;47.042;8.292;2024-03-17T13:54:17;4.13;;;2.40;;
45420;SDS011;55462;47.042;8.292;2024-03-17T13:56:43;4.10;;;2.42;;
45420;SDS011;55462;47.042;8.292;2024-03-17T13:59:11;3.55;;;2.53;;
45420;SDS011;55462;47.042;8.292;2024-03-17T14:01:37;4.78;;;2.40;;
45420;SDS011;55462;47.042;8.292;2024-03-17T14:04:02;2.45;;;2.25;;
45420;SDS011;55462;47.042;8.292;2024-03-17T14:06:27;16.75;;;10.98;;
45420;SDS011;55462;47.042;8.292;2024-03-17T14:08:53;19.25;;;11.57;;
45420;SDS011;55462;47.042;8.292;2024-03-17T14:11:18;5.13;;;3.83;;
45420;SDS011;55462;47.042;8.292;2024-03-17T14:13:43;8.15;;;6.13;;
45420;SDS011;55462;47.042;8.292;2024-03-17T14:16:09;4.43;;;3.13;;
45420;SDS011;55462;47.042;8.292;2024-03-17T14:18:36;3.67;;;2.55;;
45420;SDS011;55462;47.042;8.292;2024-03-17T14:21:01;3.88;;;2.33;;
45420;SDS011;55462;47.042;8.292;2024-03-17T14:23:26;2.53;;;2.13;;
45420;SDS011;55462;47.042;8.292;2024-03-17T14:25:54;3.30;;;2.47;;
45420;SDS011;55462;47.042;8.292;2024-03-17T14:28:20;5.68;;;4.28;;
45420;SDS011;55462;47.042;8.292;2024-03-17T14:30:46;3.58;;;2.20;;
45420;SDS011;55462;47.042;8.292;2024-03-17T14:33:12;2.33;;;2.13;;
45420;SDS011;55462;47.042;8.292;2024-03-17T14:35:37;3.00;;;2.10;;
45420;SDS011;55462;47.042;8.292;2024-03-17T14:38:03;2.83;;;2.15;;
45420;SDS011;55462;47.042;8.292;2024-03-17T14:40:29;2.53;;;2.22;;
45420;SDS011;55462;47.042;8.292;2024-03-17T14:42:55;5.88;;;2.47;;
45420;SDS011;55462;47.042;8.292;2024-03-17T14:45:21;3.78;;;2.42;;
45420;SDS011;55462;47.042;8.292;2024-03-17T14:47:48;3.88;;;2.25;;
45420;SDS011;55462;47.042;8.292;2024-03-17T14:50:13;3.30;;;2.03;;
45420;SDS011;55462;47.042;8.292;2024-03-17T14:52:41;3.42;;;2.40;;
45420;SDS011;55462;47.042;8.292;2024-03-17T14:55:07;3.33;;;2.47;;
45420;SDS011;55462;47.042;8.292;2024-03-17T14:57:34;3.85;;;2.30;;
45420;SDS011;55462;47.042;8.292;2024-03-17T15:00:00;3.50;;;2.45;;
45420;SDS011;55462;47.042;8.292;2024-03-17T15:02:26;4.57;;;2.70;;
45420;SDS011;55462;47.042;8.292;2024-03-17T15:04:51;2.80;;;2.33;;
45420;SDS011;55462;47.042;8.292;2024-03-17T15:07:17;3.90;;;2.38;;
45420;SDS011;55462;47.042;8.292;2024-03-17T15:09:42;2.58;;;2.25;;
45420;SDS011;55462;47.042;8.292;2024-03-17T15:12:08;4.32;;;2.67;;
45420;SDS011;55462;47.042;8.292;2024-03-17T15:14:33;4.97;;;2.38;;
45420;SDS011;55462;47.042;8.292;2024-03-17T15:16:58;4.00;;;2.85;;
45420;SDS011;55462;47.042;8.292;2024-03-17T15:19:24;4.28;;;2.90;;